sensor_id;sensor_type;location;lat;lon;timestamp;pressure;altitude;pressure_sealevel;temperature;humidity
40730;BME280;26418;50.070;8.436;2023-04-01T00:01:19;98276.47;;;9.66;81.39
40730;BME280;26418;50.070;8.436;2023-04-01T00:03:45;98256.41;;;9.55;81.73
40730;BME280;26418;50.070;8.436;2023-04-01T00:06:13;98274.41;;;9.63;81.88
40730;BME280;26418;50.070;8.436;2023-04-01T00:08:44;98268.59;;;9.61;81.86
40730;BME280;26418;50.070;8.436;2023-04-01T00:11:12;98268.72;;;9.65;81.95
40730;BME280;26418;50.070;8.436;2023-04-01T00:13:38;98272.97;;;9.66;81.67
40730;BME280;26418;50.070;8.436;2023-04-01T00:16:08;98268.38;;;9.66;81.61
40730;BME280;26418;50.070;8.436;2023-04-01T00:18:34;98271.06;;;9.66;81.35
40730;BME280;26418;50.070;8.436;2023-04-01T00:21:02;98277.25;;;9.67;81.70
40730;BME280;26418;50.070;8.436;2023-04-01T00:23:29;98230.28;;;9.34;81.89
40730;BME280;26418;50.070;8.436;2023-04-01T00:25:59;98265.75;;;9.57;81.94
40730;BME280;26418;50.070;8.436;2023-04-01T00:28:26;98275.88;;;9.60;81.35
40730;BME280;26418;50.070;8.436;2023-04-01T00:30:52;98264.50;;;9.55;81.45
40730;BME280;26418;50.070;8.436;2023-04-01T00:33:17;98271.28;;;9.61;81.21
40730;BME280;26418;50.070;8.436;2023-04-01T00:35:43;98258.69;;;9.65;80.49
40730;BME280;26418;50.070;8.436;2023-04-01T00:38:10;98254.16;;;9.57;80.29
40730;BME280;26418;50.070;8.436;2023-04-01T00:40:43;98261.25;;;9.62;79.63
40730;BME280;26418;50.070;8.436;2023-04-01T00:43:11;98268.13;;;9.71;79.40
40730;BME280;26418;50.070;8.436;2023-04-01T00:45:40;98263.09;;;9.70;79.33
40730;BME280;26418;50.070;8.436;2023-04-01T00:48:11;98257.78;;;9.73;78.76
40730;BME280;26418;50.070;8.436;2023-04-01T00:50:40;98264.66;;;9.71;78.31
40730;BME280;26418;50.070;8.436;2023-04-01T00:53:11;98263.97;;;9.74;78.21
40730;BME280;26418;50.070;8.436;2023-04-01T00:55:40;98251.28;;;9.74;78.00
40730;BME280;26418;50.070;8.436;2023-04-01T00:58:13;98257.38;;;9.84;77.62
40730;BME280;26418;50.070;8.436;2023-04-01T01:00:40;98245.22;;;9.78;77.25
40730;BME280;26418;50.070;8.436;2023-04-01T01:03:09;98250.28;;;9.79;77.68
40730;BME280;26418;50.070;8.436;2023-04-01T01:05:54;98252.63;;;9.81;77.40
40730;BME280;26418;50.070;8.436;2023-04-01T01:10:55;98256.44;;;9.80;77.25
40730;BME280;26418;50.070;8.436;2023-04-01T01:13:56;98256.44;;;9.80;77.12
40730;BME280;26418;50.070;8.436;2023-04-01T01:16:30;98248.03;;;9.81;77.30
40730;BME280;26418;50.070;8.436;2023-04-01T01:25:05;98245.88;;;9.74;77.58
40730;BME280;26418;50.070;8.436;2023-04-01T01:27:32;98236.19;;;9.73;77.56
40730;BME280;26418;50.070;8.436;2023-04-01T01:30:19;98238.13;;;9.73;76.99
40730;BME280;26418;50.070;8.436;2023-04-01T01:33:03;98244.41;;;9.77;77.19
40730;BME280;26418;50.070;8.436;2023-04-01T01:35:43;98251.28;;;9.74;77.63
40730;BME280;26418;50.070;8.436;2023-04-01T01:38:16;98234.50;;;9.69;77.15
40730;BME280;26418;50.070;8.436;2023-04-01T01:40:46;98244.75;;;9.75;77.37
40730;BME280;26418;50.070;8.436;2023-04-01T01:43:19;98235.63;;;9.68;77.26
40730;BME280;26418;50.070;8.436;2023-04-01T01:45:53;98230.13;;;9.64;77.66
40730;BME280;26418;50.070;8.436;2023-04-01T01:48:20;98242.06;;;9.75;77.41
40730;BME280;26418;50.070;8.436;2023-04-01T01:50:48;98242.72;;;9.72;77.25
40730;BME280;26418;50.070;8.436;2023-04-01T01:53:15;98224.72;;;9.64;76.92
40730;BME280;26418;50.070;8.436;2023-04-01T01:55:43;98224.25;;;9.62;76.91
40730;BME280;26418;50.070;8.436;2023-04-01T02:00:53;98214.34;;;9.54;76.72
40730;BME280;26418;50.070;8.436;2023-04-01T02:03:23;98225.63;;;9.68;77.40
40730;BME280;26418;50.070;8.436;2023-04-01T02:05:52;98225.41;;;9.73;77.23
40730;BME280;26418;50.070;8.436;2023-04-01T02:08:40;98225.63;;;9.68;76.74
40730;BME280;26418;50.070;8.436;2023-04-01T02:11:17;98232.47;;;9.66;77.26
40730;BME280;26418;50.070;8.436;2023-04-01T02:13:58;98227.41;;;9.64;77.63
40730;BME280;26418;50.070;8.436;2023-04-01T02:16:44;98223.25;;;9.67;77.40
40730;BME280;26418;50.070;8.436;2023-04-01T02:19:13;98228.22;;;9.65;77.61
40730;BME280;26418;50.070;8.436;2023-04-01T02:21:43;98230.69;;;9.70;77.51
40730;BME280;26418;50.070;8.436;2023-04-01T02:24:32;98233.72;;;9.68;77.16
40730;BME280;26418;50.070;8.436;2023-04-01T02:27:01;98230.91;;;9.65;77.21
40730;BME280;26418;50.070;8.436;2023-04-01T02:29:31;98230.00;;;9.60;77.36
40730;BME280;26418;50.070;8.436;2023-04-01T02:31:58;98229.34;;;9.64;77.63
40730;BME280;26418;50.070;8.436;2023-04-01T02:34:26;98213.22;;;9.55;77.98
40730;BME280;26418;50.070;8.436;2023-04-01T02:36:52;98210.88;;;9.53;77.59
40730;BME280;26418;50.070;8.436;2023-04-01T02:39:19;98223.56;;;9.53;77.39
40730;BME280;26418;50.070;8.436;2023-04-01T02:41:46;98220.56;;;9.54;77.99
40730;BME280;26418;50.070;8.436;2023-04-01T02:44:13;98212.66;;;9.49;77.72
40730;BME280;26418;50.070;8.436;2023-04-01T02:46:41;98230.34;;;9.59;77.69
40730;BME280;26418;50.070;8.436;2023-04-01T02:49:08;98223.13;;;9.51;77.57
40730;BME280;26418;50.070;8.436;2023-04-01T02:51:34;98222.66;;;9.49;78.26
40730;BME280;26418;50.070;8.436;2023-04-01T02:54:00;98234.34;;;9.53;78.08
40730;BME280;26418;50.070;8.436;2023-04-01T02:56:26;98220.63;;;9.46;78.38
40730;BME280;26418;50.070;8.436;2023-04-01T02:58:52;98223.78;;;9.48;78.68
40730;BME280;26418;50.070;8.436;2023-04-01T03:01:21;98215.25;;;9.46;78.30
40730;BME280;26418;50.070;8.436;2023-04-01T03:04:00;98218.41;;;9.48;78.41
40730;BME280;26418;50.070;8.436;2023-04-01T03:06:26;98224.59;;;9.48;78.64
40730;BME280;26418;50.070;8.436;2023-04-01T03:08:56;98219.50;;;9.47;78.98
40730;BME280;26418;50.070;8.436;2023-04-01T03:11:23;98230.78;;;9.49;78.85
40730;BME280;26418;50.070;8.436;2023-04-01T03:13:51;98225.03;;;9.50;78.92
40730;BME280;26418;50.070;8.436;2023-04-01T03:16:17;98220.19;;;9.43;79.13
40730;BME280;26418;50.070;8.436;2023-04-01T03:18:45;98227.06;;;9.53;78.56
40730;BME280;26418;50.070;8.436;2023-04-01T03:21:22;98227.63;;;9.47;78.91
40730;BME280;26418;50.070;8.436;2023-04-01T03:23:50;98232.81;;;9.52;78.52
40730;BME280;26418;50.070;8.436;2023-04-01T03:26:16;98225.84;;;9.51;78.81
40730;BME280;26418;50.070;8.436;2023-04-01T03:28:43;98218.50;;;9.39;78.82
40730;BME280;26418;50.070;8.436;2023-04-01T03:31:09;98229.41;;;9.42;79.00
40730;BME280;26418;50.070;8.436;2023-04-01T03:33:37;98230.00;;;9.48;79.17
40730;BME280;26418;50.070;8.436;2023-04-01T03:36:08;98230.44;;;9.50;79.06
40730;BME280;26418;50.070;8.436;2023-04-01T03:38:40;98226.03;;;9.46;78.80
40730;BME280;26418;50.070;8.436;2023-04-01T03:41:06;98221.91;;;9.48;79.06
40730;BME280;26418;50.070;8.436;2023-04-01T03:43:32;98220.44;;;9.51;78.68
40730;BME280;26418;50.070;8.436;2023-04-01T03:45:58;98219.41;;;9.43;78.87
40730;BME280;26418;50.070;8.436;2023-04-01T03:48:25;98243.91;;;9.50;79.08
40730;BME280;26418;50.070;8.436;2023-04-01T03:50:51;98223.78;;;9.48;78.79
40730;BME280;26418;50.070;8.436;2023-04-01T03:53:17;98225.59;;;9.43;78.80
40730;BME280;26418;50.070;8.436;2023-04-01T03:55:44;98220.19;;;9.43;78.66
40730;BME280;26418;50.070;8.436;2023-04-01T03:58:19;98238.53;;;9.50;78.93
40730;BME280;26418;50.070;8.436;2023-04-01T04:00:45;98220.19;;;9.43;79.28
40730;BME280;26418;50.070;8.436;2023-04-01T04:03:11;98215.69;;;9.35;79.60
40730;BME280;26418;50.070;8.436;2023-04-01T04:05:49;98229.06;;;9.44;79.74
40730;BME280;26418;50.070;8.436;2023-04-01T04:08:16;98226.03;;;9.46;79.91
40730;BME280;26418;50.070;8.436;2023-04-01T04:10:43;98225.59;;;9.43;80.21
40730;BME280;26418;50.070;8.436;2023-04-01T04:13:12;98222.44;;;9.41;80.02
40730;BME280;26418;50.070;8.436;2023-04-01T04:15:41;98221.75;;;9.44;80.20
40730;BME280;26418;50.070;8.436;2023-04-01T04:18:07;98220.75;;;9.37;79.84
40730;BME280;26418;50.070;8.436;2023-04-01T04:20:33;98223.91;;;9.39;80.34
40730;BME280;26418;50.070;8.436;2023-04-01T04:23:00;98215.81;;;9.39;80.36
40730;BME280;26418;50.070;8.436;2023-04-01T04:25:27;98226.59;;;9.39;80.70
40730;BME280;26418;50.070;8.436;2023-04-01T04:27:58;98222.41;;;9.29;80.74
40730;BME280;26418;50.070;8.436;2023-04-01T04:30:25;98221.88;;;9.36;80.41
40730;BME280;26418;50.070;8.436;2023-04-01T04:32:53;98226.25;;;9.40;80.26
40730;BME280;26418;50.070;8.436;2023-04-01T04:35:19;98218.94;;;9.41;79.90
40730;BME280;26418;50.070;8.436;2023-04-01T04:37:45;98219.63;;;9.38;80.11
40730;BME280;26418;50.070;8.436;2023-04-01T04:40:10;98219.16;;;9.36;80.24
40730;BME280;26418;50.070;8.436;2023-04-01T04:42:36;98225.91;;;9.42;80.18
40730;BME280;26418;50.070;8.436;2023-04-01T04:45:05;98223.34;;;9.46;80.15
40730;BME280;26418;50.070;8.436;2023-04-01T04:47:49;98230.78;;;9.49;79.99
40730;BME280;26418;50.070;8.436;2023-04-01T04:50:15;98224.34;;;9.41;79.41
40730;BME280;26418;50.070;8.436;2023-04-01T04:52:45;98229.84;;;9.44;79.73
40730;BME280;26418;50.070;8.436;2023-04-01T04:55:10;98213.53;;;9.41;79.73
40730;BME280;26418;50.070;8.436;2023-04-01T04:57:37;98232.22;;;9.46;80.06
40730;BME280;26418;50.070;8.436;2023-04-01T05:00:04;98217.81;;;9.42;80.04
40730;BME280;26418;50.070;8.436;2023-04-01T05:02:32;98222.44;;;9.41;80.65
40730;BME280;26418;50.070;8.436;2023-04-01T05:05:02;98226.72;;;9.42;80.80
40730;BME280;26418;50.070;8.436;2023-04-01T05:07:30;98233.22;;;9.41;80.65
40730;BME280;26418;50.070;8.436;2023-04-01T05:09:56;98228.94;;;9.40;81.04
40730;BME280;26418;50.070;8.436;2023-04-01T05:12:27;98224.22;;;9.37;81.22
40730;BME280;26418;50.070;8.436;2023-04-01T05:14:55;98225.69;;;9.35;81.19
40730;BME280;26418;50.070;8.436;2023-04-01T05:17:22;98232.31;;;9.37;82.00
40730;BME280;26418;50.070;8.436;2023-04-01T05:19:48;98230.41;;;9.38;82.57
40730;BME280;26418;50.070;8.436;2023-04-01T05:22:33;98234.22;;;9.37;83.31
40730;BME280;26418;50.070;8.436;2023-04-01T05:24:59;98215.00;;;9.26;83.24
40730;BME280;26418;50.070;8.436;2023-04-01T05:27:25;98223.28;;;9.21;83.61
40730;BME280;26418;50.070;8.436;2023-04-01T05:29:56;98230.06;;;9.27;83.99
40730;BME280;26418;50.070;8.436;2023-04-01T05:32:26;98229.25;;;9.26;84.10
40730;BME280;26418;50.070;8.436;2023-04-01T05:35:06;98235.31;;;9.23;84.25
40730;BME280;26418;50.070;8.436;2023-04-01T05:37:37;98233.63;;;9.19;84.62
40730;BME280;26418;50.070;8.436;2023-04-01T05:40:05;98237.75;;;9.16;84.90
40730;BME280;26418;50.070;8.436;2023-04-01T05:42:31;98221.03;;;9.10;84.71
40730;BME280;26418;50.070;8.436;2023-04-01T05:45:04;98229.34;;;9.18;84.59
40730;BME280;26418;50.070;8.436;2023-04-01T05:47:31;98227.31;;;9.15;84.44
40730;BME280;26418;50.070;8.436;2023-04-01T05:49:57;98232.38;;;9.16;83.95
40730;BME280;26418;50.070;8.436;2023-04-01T05:52:27;98240.47;;;9.16;83.54
40730;BME280;26418;50.070;8.436;2023-04-01T05:54:59;98224.28;;;9.16;83.47
40730;BME280;26418;50.070;8.436;2023-04-01T05:57:26;98227.19;;;9.11;83.89
40730;BME280;26418;50.070;8.436;2023-04-01T05:59:54;98227.97;;;9.11;84.12
40730;BME280;26418;50.070;8.436;2023-04-01T06:02:21;98229.63;;;9.04;84.56
40730;BME280;26418;50.070;8.436;2023-04-01T06:04:47;98237.84;;;9.07;84.77
40730;BME280;26418;50.070;8.436;2023-04-01T06:07:15;98225.03;;;9.04;85.02
40730;BME280;26418;50.070;8.436;2023-04-01T06:09:43;98221.78;;;9.11;84.93
40730;BME280;26418;50.070;8.436;2023-04-01T06:15:37;98234.50;;;9.10;84.86
40730;BME280;26418;50.070;8.436;2023-04-01T06:23:50;98233.34;;;9.11;84.24
40730;BME280;26418;50.070;8.436;2023-04-01T06:26:47;98237.63;;;9.12;84.53
40730;BME280;26418;50.070;8.436;2023-04-01T06:43:52;98223.28;;;9.21;85.00
40730;BME280;26418;50.070;8.436;2023-04-01T06:46:48;98241.03;;;9.22;85.28
40730;BME280;26418;50.070;8.436;2023-04-01T06:53:27;98242.03;;;9.17;86.40
40730;BME280;26418;50.070;8.436;2023-04-01T06:56:16;98238.88;;;9.15;86.65
40730;BME280;26418;50.070;8.436;2023-04-01T07:01:57;98234.03;;;9.08;87.38
40730;BME280;26418;50.070;8.436;2023-04-01T07:04:33;98232.00;;;9.05;88.53
40730;BME280;26418;50.070;8.436;2023-04-01T07:07:16;98228.53;;;9.05;88.88
40730;BME280;26418;50.070;8.436;2023-04-01T07:09:52;98237.19;;;9.10;88.60
40730;BME280;26418;50.070;8.436;2023-04-01T07:12:48;98238.88;;;9.15;88.63
40730;BME280;26418;50.070;8.436;2023-04-01T07:22:00;98239.63;;;9.37;88.25
40730;BME280;26418;50.070;8.436;2023-04-01T07:24:34;98235.00;;;9.37;88.33
40730;BME280;26418;50.070;8.436;2023-04-01T07:27:08;98237.50;;;9.42;88.55
40730;BME280;26418;50.070;8.436;2023-04-01T07:29:34;98242.09;;;9.42;88.31
40730;BME280;26418;50.070;8.436;2023-04-01T07:32:42;98251.59;;;9.48;88.82
40730;BME280;26418;50.070;8.436;2023-04-01T07:38:15;98253.50;;;9.60;88.83
40730;BME280;26418;50.070;8.436;2023-04-01T07:53:33;98264.34;;;9.85;86.91
40730;BME280;26418;50.070;8.436;2023-04-01T08:08:50;98277.53;;;9.99;85.64
40730;BME280;26418;50.070;8.436;2023-04-01T08:23:56;98282.94;;;10.23;86.43
40730;BME280;26418;50.070;8.436;2023-04-01T08:36:34;98289.69;;;10.42;87.47
40730;BME280;26418;50.070;8.436;2023-04-01T08:40:02;98292.94;;;10.48;87.35
40730;BME280;26418;50.070;8.436;2023-04-01T08:43:37;98281.47;;;10.51;87.51
40730;BME280;26418;50.070;8.436;2023-04-01T08:55:38;98295.84;;;10.67;87.36
40730;BME280;26418;50.070;8.436;2023-04-01T09:04:47;98301.16;;;10.64;87.86
40730;BME280;26418;50.070;8.436;2023-04-01T09:19:17;98301.13;;;10.76;88.61
40730;BME280;26418;50.070;8.436;2023-04-01T09:28:17;98302.31;;;11.04;88.73
40730;BME280;26418;50.070;8.436;2023-04-01T09:31:21;98314.50;;;11.26;88.88
40730;BME280;26418;50.070;8.436;2023-04-01T10:14:37;98327.06;;;13.10;81.21
40730;BME280;26418;50.070;8.436;2023-04-01T10:28:00;98331.53;;;12.31;83.63
40730;BME280;26418;50.070;8.436;2023-04-01T10:50:19;98333.72;;;12.25;87.06
40730;BME280;26418;50.070;8.436;2023-04-01T11:37:35;98335.38;;;12.46;83.57
40730;BME280;26418;50.070;8.436;2023-04-01T11:40:32;98342.91;;;12.37;84.40
40730;BME280;26418;50.070;8.436;2023-04-01T11:43:47;98341.56;;;12.31;83.89
40730;BME280;26418;50.070;8.436;2023-04-01T11:46:31;98348.41;;;12.24;84.06
40730;BME280;26418;50.070;8.436;2023-04-01T11:52:38;98350.16;;;12.33;84.77
40730;BME280;26418;50.070;8.436;2023-04-01T12:01:07;98363.19;;;12.43;84.92
40730;BME280;26418;50.070;8.436;2023-04-01T12:32:20;98396.81;;;11.66;90.78
40730;BME280;26418;50.070;8.436;2023-04-01T12:45:41;98403.31;;;11.93;92.37
40730;BME280;26418;50.070;8.436;2023-04-01T13:00:25;98390.88;;;12.84;92.54
40730;BME280;26418;50.070;8.436;2023-04-01T14:06:09;98434.81;;;12.42;89.14
40730;BME280;26418;50.070;8.436;2023-04-01T14:15:43;98438.63;;;11.96;91.21
40730;BME280;26418;50.070;8.436;2023-04-01T14:18:42;98439.59;;;11.88;91.77
40730;BME280;26418;50.070;8.436;2023-04-01T14:24:05;98445.75;;;11.73;88.79
40730;BME280;26418;50.070;8.436;2023-04-01T14:26:56;98438.66;;;11.68;90.12
40730;BME280;26418;50.070;8.436;2023-04-01T14:48:49;98459.06;;;11.78;92.28
40730;BME280;26418;50.070;8.436;2023-04-01T14:51:44;98474.94;;;11.79;91.88
40730;BME280;26418;50.070;8.436;2023-04-01T14:54:14;98476.53;;;11.80;91.42
40730;BME280;26418;50.070;8.436;2023-04-01T14:57:10;98474.66;;;11.69;91.84
40730;BME280;26418;50.070;8.436;2023-04-01T15:00:17;98485.38;;;11.65;92.92
40730;BME280;26418;50.070;8.436;2023-04-01T15:15:30;98481.41;;;12.16;90.40
40730;BME280;26418;50.070;8.436;2023-04-01T15:21:03;98493.00;;;12.16;90.27
40730;BME280;26418;50.070;8.436;2023-04-01T15:34:54;98503.75;;;12.13;91.33
40730;BME280;26418;50.070;8.436;2023-04-01T15:45:46;98509.81;;;12.82;90.24
40730;BME280;26418;50.070;8.436;2023-04-01T15:53:37;98513.69;;;13.33;85.44
40730;BME280;26418;50.070;8.436;2023-04-01T16:02:53;98522.16;;;12.80;85.02
40730;BME280;26418;50.070;8.436;2023-04-01T16:11:16;98524.09;;;12.35;88.29
40730;BME280;26418;50.070;8.436;2023-04-01T16:17:05;98540.47;;;12.10;90.43
40730;BME280;26418;50.070;8.436;2023-04-01T16:22:33;98546.13;;;11.92;92.02
40730;BME280;26418;50.070;8.436;2023-04-01T16:25:20;98546.25;;;11.84;92.72
40730;BME280;26418;50.070;8.436;2023-04-01T16:34:08;98555.91;;;11.69;93.20
40730;BME280;26418;50.070;8.436;2023-04-01T16:36:54;98554.09;;;11.60;93.80
40730;BME280;26418;50.070;8.436;2023-04-01T16:39:36;98566.41;;;11.58;94.53
40730;BME280;26418;50.070;8.436;2023-04-01T16:42:11;98567.88;;;11.55;94.70
40730;BME280;26418;50.070;8.436;2023-04-01T16:45:06;98567.44;;;11.53;94.55
40730;BME280;26418;50.070;8.436;2023-04-01T16:47:47;98568.47;;;11.48;93.99
40730;BME280;26418;50.070;8.436;2023-04-01T17:07:17;98600.72;;;11.66;95.79
40730;BME280;26418;50.070;8.436;2023-04-01T17:27:59;98632.28;;;11.87;93.40
40730;BME280;26418;50.070;8.436;2023-04-01T18:16:43;98704.19;;;10.37;98.47
40730;BME280;26418;50.070;8.436;2023-04-01T18:22:47;98712.38;;;10.20;98.81
40730;BME280;26418;50.070;8.436;2023-04-01T18:25:40;98712.31;;;10.07;99.16
40730;BME280;26418;50.070;8.436;2023-04-01T18:31:07;98722.22;;;9.95;100.00
40730;BME280;26418;50.070;8.436;2023-04-01T18:33:44;98730.81;;;9.88;100.00
40730;BME280;26418;50.070;8.436;2023-04-01T18:57:45;98780.97;;;9.59;100.00
40730;BME280;26418;50.070;8.436;2023-04-01T19:00:32;98782.41;;;9.56;100.00
40730;BME280;26418;50.070;8.436;2023-04-01T19:03:25;98781.94;;;9.54;100.00
40730;BME280;26418;50.070;8.436;2023-04-01T19:06:23;98794.63;;;9.54;100.00
40730;BME280;26418;50.070;8.436;2023-04-01T19:09:21;98788.09;;;9.55;100.00
40730;BME280;26418;50.070;8.436;2023-04-01T19:12:19;98798.91;;;9.55;100.00
40730;BME280;26418;50.070;8.436;2023-04-01T19:23:51;98798.44;;;9.44;100.00
40730;BME280;26418;50.070;8.436;2023-04-01T19:51:31;98835.13;;;8.92;100.00
40730;BME280;26418;50.070;8.436;2023-04-01T20:06:35;98848.28;;;8.76;100.00
40730;BME280;26418;50.070;8.436;2023-04-01T20:12:13;98849.06;;;8.68;100.00
40730;BME280;26418;50.070;8.436;2023-04-01T20:18:25;98866.78;;;8.69;100.00
40730;BME280;26418;50.070;8.436;2023-04-01T20:24:51;98869.97;;;8.71;100.00
40730;BME280;26418;50.070;8.436;2023-04-01T20:44:31;98891.28;;;9.08;100.00
40730;BME280;26418;50.070;8.436;2023-04-01T20:56:08;98902.06;;;8.90;100.00
40730;BME280;26418;50.070;8.436;2023-04-01T21:09:25;98916.28;;;8.73;100.00
40730;BME280;26418;50.070;8.436;2023-04-01T21:30:12;98959.56;;;8.68;100.00
40730;BME280;26418;50.070;8.436;2023-04-01T21:56:41;98983.59;;;8.87;100.00
40730;BME280;26418;50.070;8.436;2023-04-01T22:08:36;98989.28;;;8.86;100.00
40730;BME280;26418;50.070;8.436;2023-04-01T22:19:30;99005.94;;;8.88;100.00
40730;BME280;26418;50.070;8.436;2023-04-01T22:22:28;99009.44;;;8.88;100.00
40730;BME280;26418;50.070;8.436;2023-04-01T22:25:24;99006.91;;;8.92;100.00
40730;BME280;26418;50.070;8.436;2023-04-01T22:28:21;99002.03;;;8.94;100.00
40730;BME280;26418;50.070;8.436;2023-04-01T22:31:06;99013.75;;;8.98;100.00
40730;BME280;26418;50.070;8.436;2023-04-01T22:34:14;99001.81;;;8.90;100.00
40730;BME280;26418;50.070;8.436;2023-04-01T22:49:42;99029.09;;;8.89;100.00
40730;BME280;26418;50.070;8.436;2023-04-01T23:00:36;99042.84;;;8.78;100.00
40730;BME280;26418;50.070;8.436;2023-04-01T23:03:38;99039.69;;;8.76;100.00
40730;BME280;26418;50.070;8.436;2023-04-01T23:41:06;99085.19;;;8.78;100.00
